sensor_id;sensor_type;location;lat;lon;timestamp;P1;durP1;ratioP1;P2;durP2;ratioP2
33403;SDS011;19751;40.274;18.268;2024-03-08T00:00:14;18.77;;;11.52;;
33403;SDS011;19751;40.274;18.268;2024-03-08T00:02:46;24.65;;;11.60;;
33403;SDS011;19751;40.274;18.268;2024-03-08T00:05:13;17.80;;;11.93;;
33403;SDS011;19751;40.274;18.268;2024-03-08T00:07:39;19.67;;;11.98;;
33403;SDS011;19751;40.274;18.268;2024-03-08T00:10:06;15.30;;;11.00;;
33403;SDS011;19751;40.274;18.268;2024-03-08T00:12:36;24.25;;;13.00;;
33403;SDS011;19751;40.274;18.268;2024-03-08T00:15:04;20.38;;;13.23;;
33403;SDS011;19751;40.274;18.268;2024-03-08T00:17:31;21.50;;;11.25;;
33403;SDS011;19751;40.274;18.268;2024-03-08T00:19:56;16.23;;;11.35;;
33403;SDS011;19751;40.274;18.268;2024-03-08T00:22:22;19.98;;;11.10;;
33403;SDS011;19751;40.274;18.268;2024-03-08T00:24:47;22.38;;;12.15;;
33403;SDS011;19751;40.274;18.268;2024-03-08T00:27:15;22.95;;;11.90;;
33403;SDS011;19751;40.274;18.268;2024-03-08T00:29:41;23.38;;;11.55;;
33403;SDS011;19751;40.274;18.268;2024-03-08T00:32:06;17.58;;;10.85;;
33403;SDS011;19751;40.274;18.268;2024-03-08T00:34:34;21.05;;;10.73;;
33403;SDS011;19751;40.274;18.268;2024-03-08T00:37:02;23.20;;;10.85;;
33403;SDS011;19751;40.274;18.268;2024-03-08T00:39:28;21.52;;;10.60;;
33403;SDS011;19751;40.274;18.268;2024-03-08T00:41:53;18.35;;;11.20;;
33403;SDS011;19751;40.274;18.268;2024-03-08T00:44:19;14.80;;;10.95;;
33403;SDS011;19751;40.274;18.268;2024-03-08T00:46:44;18.08;;;10.32;;
33403;SDS011;19751;40.274;18.268;2024-03-08T00:49:10;20.58;;;10.60;;
33403;SDS011;19751;40.274;18.268;2024-03-08T00:51:36;13.73;;;9.02;;
33403;SDS011;19751;40.274;18.268;2024-03-08T00:54:02;23.30;;;9.70;;
33403;SDS011;19751;40.274;18.268;2024-03-08T00:56:28;17.95;;;10.65;;
33403;SDS011;19751;40.274;18.268;2024-03-08T00:58:53;18.60;;;9.82;;
33403;SDS011;19751;40.274;18.268;2024-03-08T01:01:19;16.75;;;9.65;;
33403;SDS011;19751;40.274;18.268;2024-03-08T01:03:44;15.95;;;9.27;;
33403;SDS011;19751;40.274;18.268;2024-03-08T01:06:10;19.27;;;9.55;;
33403;SDS011;19751;40.274;18.268;2024-03-08T01:08:36;12.95;;;7.53;;
33403;SDS011;19751;40.274;18.268;2024-03-08T01:11:03;15.07;;;8.50;;
33403;SDS011;19751;40.274;18.268;2024-03-08T01:13:30;33.42;;;9.88;;
33403;SDS011;19751;40.274;18.268;2024-03-08T01:15:56;14.13;;;7.47;;
33403;SDS011;19751;40.274;18.268;2024-03-08T01:18:21;16.85;;;7.85;;
33403;SDS011;19751;40.274;18.268;2024-03-08T01:20:47;17.67;;;8.05;;
33403;SDS011;19751;40.274;18.268;2024-03-08T01:23:12;12.70;;;8.50;;
33403;SDS011;19751;40.274;18.268;2024-03-08T01:25:38;10.35;;;7.50;;
33403;SDS011;19751;40.274;18.268;2024-03-08T01:28:04;15.63;;;8.68;;
33403;SDS011;19751;40.274;18.268;2024-03-08T01:30:30;19.70;;;7.85;;
33403;SDS011;19751;40.274;18.268;2024-03-08T01:32:58;11.27;;;7.55;;
33403;SDS011;19751;40.274;18.268;2024-03-08T01:35:23;14.45;;;7.90;;
33403;SDS011;19751;40.274;18.268;2024-03-08T01:37:49;11.73;;;8.82;;
33403;SDS011;19751;40.274;18.268;2024-03-08T01:40:14;11.23;;;6.90;;
33403;SDS011;19751;40.274;18.268;2024-03-08T01:42:41;15.27;;;8.98;;
33403;SDS011;19751;40.274;18.268;2024-03-08T01:45:07;11.90;;;7.35;;
33403;SDS011;19751;40.274;18.268;2024-03-08T01:47:34;12.00;;;6.72;;
33403;SDS011;19751;40.274;18.268;2024-03-08T01:50:00;7.80;;;6.53;;
33403;SDS011;19751;40.274;18.268;2024-03-08T01:52:28;14.32;;;6.88;;
33403;SDS011;19751;40.274;18.268;2024-03-08T01:54:56;12.23;;;5.45;;
33403;SDS011;19751;40.274;18.268;2024-03-08T01:57:26;16.52;;;5.75;;
33403;SDS011;19751;40.274;18.268;2024-03-08T01:59:53;10.60;;;5.55;;
33403;SDS011;19751;40.274;18.268;2024-03-08T02:02:20;6.97;;;5.05;;
33403;SDS011;19751;40.274;18.268;2024-03-08T02:04:47;8.48;;;5.88;;
33403;SDS011;19751;40.274;18.268;2024-03-08T02:07:13;7.53;;;4.53;;
33403;SDS011;19751;40.274;18.268;2024-03-08T02:09:39;7.82;;;5.25;;
33403;SDS011;19751;40.274;18.268;2024-03-08T02:12:05;11.18;;;4.82;;
33403;SDS011;19751;40.274;18.268;2024-03-08T02:14:31;8.10;;;4.55;;
33403;SDS011;19751;40.274;18.268;2024-03-08T02:17:01;9.15;;;5.15;;
33403;SDS011;19751;40.274;18.268;2024-03-08T02:19:26;10.57;;;5.50;;
33403;SDS011;19751;40.274;18.268;2024-03-08T02:21:52;8.80;;;4.90;;
33403;SDS011;19751;40.274;18.268;2024-03-08T02:24:18;7.43;;;4.55;;
33403;SDS011;19751;40.274;18.268;2024-03-08T02:26:44;9.07;;;5.13;;
33403;SDS011;19751;40.274;18.268;2024-03-08T02:29:09;9.30;;;4.90;;
33403;SDS011;19751;40.274;18.268;2024-03-08T02:31:35;9.85;;;4.55;;
33403;SDS011;19751;40.274;18.268;2024-03-08T02:34:01;7.50;;;4.30;;
33403;SDS011;19751;40.274;18.268;2024-03-08T02:36:27;7.55;;;4.07;;
33403;SDS011;19751;40.274;18.268;2024-03-08T02:38:52;8.00;;;5.13;;
33403;SDS011;19751;40.274;18.268;2024-03-08T02:41:18;13.13;;;5.80;;
33403;SDS011;19751;40.274;18.268;2024-03-08T02:43:43;7.03;;;4.97;;
33403;SDS011;19751;40.274;18.268;2024-03-08T02:46:10;9.68;;;5.40;;
33403;SDS011;19751;40.274;18.268;2024-03-08T02:48:35;9.45;;;5.20;;
33403;SDS011;19751;40.274;18.268;2024-03-08T02:51:01;9.30;;;5.22;;
33403;SDS011;19751;40.274;18.268;2024-03-08T02:53:27;8.43;;;5.15;;
33403;SDS011;19751;40.274;18.268;2024-03-08T02:55:52;7.82;;;5.13;;
33403;SDS011;19751;40.274;18.268;2024-03-08T02:58:18;8.55;;;4.60;;
33403;SDS011;19751;40.274;18.268;2024-03-08T03:00:43;7.00;;;4.53;;
33403;SDS011;19751;40.274;18.268;2024-03-08T03:03:09;7.18;;;4.65;;
33403;SDS011;19751;40.274;18.268;2024-03-08T03:05:34;4.97;;;3.80;;
33403;SDS011;19751;40.274;18.268;2024-03-08T03:08:00;8.82;;;4.07;;
33403;SDS011;19751;40.274;18.268;2024-03-08T03:10:26;9.65;;;4.10;;
33403;SDS011;19751;40.274;18.268;2024-03-08T03:12:51;12.48;;;4.82;;
33403;SDS011;19751;40.274;18.268;2024-03-08T03:15:17;8.05;;;4.45;;
33403;SDS011;19751;40.274;18.268;2024-03-08T03:17:47;5.10;;;4.10;;
33403;SDS011;19751;40.274;18.268;2024-03-08T03:20:13;8.73;;;4.90;;
33403;SDS011;19751;40.274;18.268;2024-03-08T03:22:39;8.00;;;5.05;;
33403;SDS011;19751;40.274;18.268;2024-03-08T03:25:06;10.25;;;5.10;;
33403;SDS011;19751;40.274;18.268;2024-03-08T03:27:33;8.98;;;4.65;;
33403;SDS011;19751;40.274;18.268;2024-03-08T03:29:58;8.15;;;4.13;;
33403;SDS011;19751;40.274;18.268;2024-03-08T03:32:44;7.18;;;3.75;;
33403;SDS011;19751;40.274;18.268;2024-03-08T03:35:12;6.28;;;4.60;;
33403;SDS011;19751;40.274;18.268;2024-03-08T03:37:38;8.60;;;3.72;;
33403;SDS011;19751;40.274;18.268;2024-03-08T03:40:05;5.28;;;3.58;;
33403;SDS011;19751;40.274;18.268;2024-03-08T03:42:31;8.85;;;3.55;;
33403;SDS011;19751;40.274;18.268;2024-03-08T03:44:56;5.57;;;3.53;;
33403;SDS011;19751;40.274;18.268;2024-03-08T03:47:22;4.00;;;3.13;;
33403;SDS011;19751;40.274;18.268;2024-03-08T03:49:47;5.40;;;3.55;;
33403;SDS011;19751;40.274;18.268;2024-03-08T03:52:13;3.42;;;3.03;;
33403;SDS011;19751;40.274;18.268;2024-03-08T03:54:38;6.07;;;3.67;;
33403;SDS011;19751;40.274;18.268;2024-03-08T03:57:04;4.80;;;3.20;;
33403;SDS011;19751;40.274;18.268;2024-03-08T03:59:29;5.93;;;3.00;;
33403;SDS011;19751;40.274;18.268;2024-03-08T04:01:56;8.07;;;3.30;;
33403;SDS011;19751;40.274;18.268;2024-03-08T04:04:21;6.68;;;3.03;;
33403;SDS011;19751;40.274;18.268;2024-03-08T04:06:49;5.85;;;3.17;;
33403;SDS011;19751;40.274;18.268;2024-03-08T04:09:16;4.95;;;3.55;;
33403;SDS011;19751;40.274;18.268;2024-03-08T04:11:44;6.63;;;3.42;;
33403;SDS011;19751;40.274;18.268;2024-03-08T04:14:09;5.28;;;2.90;;
33403;SDS011;19751;40.274;18.268;2024-03-08T04:16:35;6.63;;;3.50;;
33403;SDS011;19751;40.274;18.268;2024-03-08T04:19:01;4.78;;;3.35;;
33403;SDS011;19751;40.274;18.268;2024-03-08T04:21:29;9.80;;;3.78;;
33403;SDS011;19751;40.274;18.268;2024-03-08T04:23:55;6.30;;;3.22;;
33403;SDS011;19751;40.274;18.268;2024-03-08T04:26:21;4.90;;;3.53;;
33403;SDS011;19751;40.274;18.268;2024-03-08T04:28:47;8.18;;;3.85;;
33403;SDS011;19751;40.274;18.268;2024-03-08T04:31:12;5.47;;;3.13;;
33403;SDS011;19751;40.274;18.268;2024-03-08T04:33:38;4.75;;;3.03;;
33403;SDS011;19751;40.274;18.268;2024-03-08T04:36:04;6.45;;;3.95;;
33403;SDS011;19751;40.274;18.268;2024-03-08T04:38:30;8.07;;;3.58;;
33403;SDS011;19751;40.274;18.268;2024-03-08T04:40:56;6.63;;;3.90;;
33403;SDS011;19751;40.274;18.268;2024-03-08T04:43:22;9.48;;;4.47;;
33403;SDS011;19751;40.274;18.268;2024-03-08T04:45:50;8.20;;;4.63;;
33403;SDS011;19751;40.274;18.268;2024-03-08T04:48:16;9.50;;;4.53;;
33403;SDS011;19751;40.274;18.268;2024-03-08T04:50:41;12.65;;;5.13;;
33403;SDS011;19751;40.274;18.268;2024-03-08T04:53:07;6.50;;;3.63;;
33403;SDS011;19751;40.274;18.268;2024-03-08T04:55:33;8.70;;;3.83;;
33403;SDS011;19751;40.274;18.268;2024-03-08T04:57:59;9.45;;;4.45;;
33403;SDS011;19751;40.274;18.268;2024-03-08T05:00:25;7.70;;;4.07;;
33403;SDS011;19751;40.274;18.268;2024-03-08T05:02:50;9.25;;;3.92;;
33403;SDS011;19751;40.274;18.268;2024-03-08T05:05:18;11.40;;;3.85;;
33403;SDS011;19751;40.274;18.268;2024-03-08T05:07:44;4.43;;;3.17;;
33403;SDS011;19751;40.274;18.268;2024-03-08T05:10:10;4.10;;;2.90;;
33403;SDS011;19751;40.274;18.268;2024-03-08T05:12:36;6.20;;;3.20;;
33403;SDS011;19751;40.274;18.268;2024-03-08T05:15:04;4.45;;;3.08;;
33403;SDS011;19751;40.274;18.268;2024-03-08T05:17:30;6.82;;;3.47;;
33403;SDS011;19751;40.274;18.268;2024-03-08T05:19:55;5.72;;;3.50;;
33403;SDS011;19751;40.274;18.268;2024-03-08T05:22:21;5.82;;;2.75;;
33403;SDS011;19751;40.274;18.268;2024-03-08T05:24:46;6.82;;;3.15;;
33403;SDS011;19751;40.274;18.268;2024-03-08T05:27:12;5.82;;;3.47;;
33403;SDS011;19751;40.274;18.268;2024-03-08T05:29:38;5.03;;;3.35;;
33403;SDS011;19751;40.274;18.268;2024-03-08T05:32:03;6.15;;;3.90;;
33403;SDS011;19751;40.274;18.268;2024-03-08T05:34:29;5.43;;;3.17;;
33403;SDS011;19751;40.274;18.268;2024-03-08T05:36:55;7.22;;;3.10;;
33403;SDS011;19751;40.274;18.268;2024-03-08T05:39:20;5.78;;;2.55;;
33403;SDS011;19751;40.274;18.268;2024-03-08T05:41:46;5.18;;;3.00;;
33403;SDS011;19751;40.274;18.268;2024-03-08T05:44:12;4.10;;;2.70;;
33403;SDS011;19751;40.274;18.268;2024-03-08T05:46:38;5.40;;;3.63;;
33403;SDS011;19751;40.274;18.268;2024-03-08T05:49:04;4.22;;;3.00;;
33403;SDS011;19751;40.274;18.268;2024-03-08T05:51:33;6.35;;;3.63;;
33403;SDS011;19751;40.274;18.268;2024-03-08T05:54:00;6.25;;;3.53;;
33403;SDS011;19751;40.274;18.268;2024-03-08T05:56:28;4.32;;;3.10;;
33403;SDS011;19751;40.274;18.268;2024-03-08T05:58:57;7.05;;;3.35;;
33403;SDS011;19751;40.274;18.268;2024-03-08T06:01:26;6.18;;;3.70;;
33403;SDS011;19751;40.274;18.268;2024-03-08T06:03:52;5.47;;;3.28;;
33403;SDS011;19751;40.274;18.268;2024-03-08T06:06:20;3.78;;;3.05;;
33403;SDS011;19751;40.274;18.268;2024-03-08T06:08:46;5.75;;;3.30;;
33403;SDS011;19751;40.274;18.268;2024-03-08T06:11:14;13.40;;;5.63;;
33403;SDS011;19751;40.274;18.268;2024-03-08T06:13:43;8.95;;;3.65;;
33403;SDS011;19751;40.274;18.268;2024-03-08T06:16:09;4.35;;;2.42;;
33403;SDS011;19751;40.274;18.268;2024-03-08T06:18:35;5.57;;;3.80;;
33403;SDS011;19751;40.274;18.268;2024-03-08T06:21:07;4.53;;;3.03;;
33403;SDS011;19751;40.274;18.268;2024-03-08T06:23:41;9.57;;;3.45;;
33403;SDS011;19751;40.274;18.268;2024-03-08T06:26:09;8.27;;;5.28;;
33403;SDS011;19751;40.274;18.268;2024-03-08T06:28:34;7.63;;;3.67;;
33403;SDS011;19751;40.274;18.268;2024-03-08T06:31:00;4.45;;;4.05;;
33403;SDS011;19751;40.274;18.268;2024-03-08T06:33:27;12.90;;;4.38;;
33403;SDS011;19751;40.274;18.268;2024-03-08T06:35:53;6.28;;;4.25;;
33403;SDS011;19751;40.274;18.268;2024-03-08T06:38:22;7.78;;;4.30;;
33403;SDS011;19751;40.274;18.268;2024-03-08T06:40:50;6.00;;;3.85;;
33403;SDS011;19751;40.274;18.268;2024-03-08T06:43:17;7.05;;;4.32;;
33403;SDS011;19751;40.274;18.268;2024-03-08T06:45:43;10.63;;;4.63;;
33403;SDS011;19751;40.274;18.268;2024-03-08T06:48:15;6.30;;;4.15;;
33403;SDS011;19751;40.274;18.268;2024-03-08T06:50:42;7.97;;;3.55;;
33403;SDS011;19751;40.274;18.268;2024-03-08T06:53:09;3.70;;;2.80;;
33403;SDS011;19751;40.274;18.268;2024-03-08T06:55:35;4.05;;;2.95;;
33403;SDS011;19751;40.274;18.268;2024-03-08T06:58:00;4.30;;;2.55;;
33403;SDS011;19751;40.274;18.268;2024-03-08T07:00:26;4.70;;;3.03;;
33403;SDS011;19751;40.274;18.268;2024-03-08T07:02:54;5.40;;;2.92;;
33403;SDS011;19751;40.274;18.268;2024-03-08T07:05:19;8.35;;;4.00;;
33403;SDS011;19751;40.274;18.268;2024-03-08T07:07:45;12.80;;;7.20;;
33403;SDS011;19751;40.274;18.268;2024-03-08T07:10:13;3.85;;;2.88;;
33403;SDS011;19751;40.274;18.268;2024-03-08T07:12:40;2.40;;;2.03;;
33403;SDS011;19751;40.274;18.268;2024-03-08T07:15:07;3.63;;;2.00;;
33403;SDS011;19751;40.274;18.268;2024-03-08T07:17:33;2.65;;;1.85;;
33403;SDS011;19751;40.274;18.268;2024-03-08T07:20:00;2.97;;;1.80;;
33403;SDS011;19751;40.274;18.268;2024-03-08T07:22:32;5.13;;;2.28;;
33403;SDS011;19751;40.274;18.268;2024-03-08T07:24:57;5.28;;;2.03;;
33403;SDS011;19751;40.274;18.268;2024-03-08T07:27:43;2.55;;;1.92;;
33403;SDS011;19751;40.274;18.268;2024-03-08T07:30:08;5.45;;;1.83;;
33403;SDS011;19751;40.274;18.268;2024-03-08T07:32:38;11.75;;;2.90;;
33403;SDS011;19751;40.274;18.268;2024-03-08T07:35:03;3.65;;;2.03;;
33403;SDS011;19751;40.274;18.268;2024-03-08T07:37:29;4.18;;;2.13;;
33403;SDS011;19751;40.274;18.268;2024-03-08T07:39:56;2.60;;;2.05;;
33403;SDS011;19751;40.274;18.268;2024-03-08T07:42:23;4.32;;;2.28;;
33403;SDS011;19751;40.274;18.268;2024-03-08T07:44:48;2.60;;;1.77;;
33403;SDS011;19751;40.274;18.268;2024-03-08T07:47:15;2.47;;;2.03;;
33403;SDS011;19751;40.274;18.268;2024-03-08T07:49:42;3.03;;;1.55;;
33403;SDS011;19751;40.274;18.268;2024-03-08T07:52:08;4.22;;;1.60;;
33403;SDS011;19751;40.274;18.268;2024-03-08T07:54:34;3.33;;;1.73;;
33403;SDS011;19751;40.274;18.268;2024-03-08T07:57:02;2.50;;;1.63;;
33403;SDS011;19751;40.274;18.268;2024-03-08T07:59:28;3.15;;;1.60;;
33403;SDS011;19751;40.274;18.268;2024-03-08T08:01:55;4.03;;;2.17;;
33403;SDS011;19751;40.274;18.268;2024-03-08T08:04:21;1.95;;;1.85;;
33403;SDS011;19751;40.274;18.268;2024-03-08T08:06:49;2.28;;;1.50;;
33403;SDS011;19751;40.274;18.268;2024-03-08T08:09:16;4.93;;;1.85;;
33403;SDS011;19751;40.274;18.268;2024-03-08T08:11:53;9.48;;;2.65;;
33403;SDS011;19751;40.274;18.268;2024-03-08T08:14:18;4.30;;;1.48;;
33403;SDS011;19751;40.274;18.268;2024-03-08T08:16:46;3.60;;;1.50;;
33403;SDS011;19751;40.274;18.268;2024-03-08T08:19:13;5.43;;;1.55;;
33403;SDS011;19751;40.274;18.268;2024-03-08T08:21:39;1.73;;;1.42;;
33403;SDS011;19751;40.274;18.268;2024-03-08T08:24:05;2.67;;;1.15;;
33403;SDS011;19751;40.274;18.268;2024-03-08T08:26:31;1.98;;;1.50;;
33403;SDS011;19751;40.274;18.268;2024-03-08T08:28:57;4.63;;;1.85;;
33403;SDS011;19751;40.274;18.268;2024-03-08T08:31:24;3.47;;;0.75;;
33403;SDS011;19751;40.274;18.268;2024-03-08T08:33:50;6.30;;;1.70;;
33403;SDS011;19751;40.274;18.268;2024-03-08T08:36:17;3.97;;;0.90;;
33403;SDS011;19751;40.274;18.268;2024-03-08T08:38:43;10.57;;;1.55;;
33403;SDS011;19751;40.274;18.268;2024-03-08T08:41:09;1.17;;;0.90;;
33403;SDS011;19751;40.274;18.268;2024-03-08T08:43:36;0.77;;;0.60;;
33403;SDS011;19751;40.274;18.268;2024-03-08T08:46:02;0.82;;;0.77;;
33403;SDS011;19751;40.274;18.268;2024-03-08T08:48:27;2.03;;;0.80;;
33403;SDS011;19751;40.274;18.268;2024-03-08T08:50:55;1.40;;;1.15;;
33403;SDS011;19751;40.274;18.268;2024-03-08T08:53:21;3.95;;;1.23;;
33403;SDS011;19751;40.274;18.268;2024-03-08T08:55:47;3.42;;;0.90;;
33403;SDS011;19751;40.274;18.268;2024-03-08T08:58:13;1.27;;;0.60;;
33403;SDS011;19751;40.274;18.268;2024-03-08T09:00:39;1.42;;;0.80;;
33403;SDS011;19751;40.274;18.268;2024-03-08T09:03:05;1.30;;;0.82;;
33403;SDS011;19751;40.274;18.268;2024-03-08T09:05:31;0.95;;;0.63;;
33403;SDS011;19751;40.274;18.268;2024-03-08T09:07:58;3.53;;;0.88;;
33403;SDS011;19751;40.274;18.268;2024-03-08T09:10:25;1.02;;;0.60;;
33403;SDS011;19751;40.274;18.268;2024-03-08T09:12:50;2.22;;;1.63;;
33403;SDS011;19751;40.274;18.268;2024-03-08T09:15:16;1.30;;;1.00;;
33403;SDS011;19751;40.274;18.268;2024-03-08T09:17:42;1.40;;;1.08;;
33403;SDS011;19751;40.274;18.268;2024-03-08T09:20:09;1.73;;;0.80;;
33403;SDS011;19751;40.274;18.268;2024-03-08T09:22:39;2.03;;;1.50;;
33403;SDS011;19751;40.274;18.268;2024-03-08T09:25:05;4.63;;;1.25;;
33403;SDS011;19751;40.274;18.268;2024-03-08T09:27:32;3.75;;;1.48;;
33403;SDS011;19751;40.274;18.268;2024-03-08T09:29:59;3.80;;;1.73;;
33403;SDS011;19751;40.274;18.268;2024-03-08T09:32:24;6.03;;;2.10;;
33403;SDS011;19751;40.274;18.268;2024-03-08T09:34:49;15.43;;;8.25;;
33403;SDS011;19751;40.274;18.268;2024-03-08T09:37:15;4.82;;;3.50;;
33403;SDS011;19751;40.274;18.268;2024-03-08T09:39:41;3.38;;;1.88;;
33403;SDS011;19751;40.274;18.268;2024-03-08T09:42:06;2.28;;;1.40;;
33403;SDS011;19751;40.274;18.268;2024-03-08T09:44:32;2.63;;;1.48;;
33403;SDS011;19751;40.274;18.268;2024-03-08T09:46:58;3.88;;;2.22;;
33403;SDS011;19751;40.274;18.268;2024-03-08T09:49:24;3.38;;;1.40;;
33403;SDS011;19751;40.274;18.268;2024-03-08T09:51:49;2.53;;;1.38;;
33403;SDS011;19751;40.274;18.268;2024-03-08T09:54:16;2.30;;;1.15;;
33403;SDS011;19751;40.274;18.268;2024-03-08T09:56:42;1.30;;;0.77;;
33403;SDS011;19751;40.274;18.268;2024-03-08T09:59:09;2.85;;;1.10;;
33403;SDS011;19751;40.274;18.268;2024-03-08T10:01:52;1.92;;;0.70;;
33403;SDS011;19751;40.274;18.268;2024-03-08T10:04:21;6.55;;;2.35;;
33403;SDS011;19751;40.274;18.268;2024-03-08T10:06:47;1.25;;;0.60;;
33403;SDS011;19751;40.274;18.268;2024-03-08T10:09:13;1.65;;;0.95;;
33403;SDS011;19751;40.274;18.268;2024-03-08T10:11:42;1.92;;;0.80;;
33403;SDS011;19751;40.274;18.268;2024-03-08T10:14:10;4.03;;;1.10;;
33403;SDS011;19751;40.274;18.268;2024-03-08T10:16:36;3.55;;;1.27;;
33403;SDS011;19751;40.274;18.268;2024-03-08T10:19:03;2.35;;;1.00;;
33403;SDS011;19751;40.274;18.268;2024-03-08T10:21:30;2.88;;;1.15;;
33403;SDS011;19751;40.274;18.268;2024-03-08T10:23:58;4.00;;;1.58;;
33403;SDS011;19751;40.274;18.268;2024-03-08T10:26:24;3.53;;;2.30;;
33403;SDS011;19751;40.274;18.268;2024-03-08T10:28:50;3.85;;;2.63;;
33403;SDS011;19751;40.274;18.268;2024-03-08T10:31:18;5.95;;;2.95;;
33403;SDS011;19751;40.274;18.268;2024-03-08T10:33:44;4.45;;;3.13;;
33403;SDS011;19751;40.274;18.268;2024-03-08T10:36:14;5.10;;;2.17;;
33403;SDS011;19751;40.274;18.268;2024-03-08T10:38:40;2.75;;;1.50;;
33403;SDS011;19751;40.274;18.268;2024-03-08T10:41:09;2.40;;;1.33;;
33403;SDS011;19751;40.274;18.268;2024-03-08T10:44:03;1.92;;;1.10;;
33403;SDS011;19751;40.274;18.268;2024-03-08T10:49:17;2.08;;;1.05;;
33403;SDS011;19751;40.274;18.268;2024-03-08T10:51:47;1.58;;;1.00;;
33403;SDS011;19751;40.274;18.268;2024-03-08T10:54:15;1.25;;;0.90;;
33403;SDS011;19751;40.274;18.268;2024-03-08T10:56:43;0.95;;;0.82;;
33403;SDS011;19751;40.274;18.268;2024-03-08T10:59:08;2.53;;;0.90;;
33403;SDS011;19751;40.274;18.268;2024-03-08T11:01:35;2.05;;;0.93;;
33403;SDS011;19751;40.274;18.268;2024-03-08T11:04:03;1.20;;;1.10;;
33403;SDS011;19751;40.274;18.268;2024-03-08T11:09:02;1.10;;;0.88;;
33403;SDS011;19751;40.274;18.268;2024-03-08T11:11:29;3.83;;;1.42;;
33403;SDS011;19751;40.274;18.268;2024-03-08T11:14:01;1.73;;;1.42;;
33403;SDS011;19751;40.274;18.268;2024-03-08T11:19:00;1.40;;;0.70;;
33403;SDS011;19751;40.274;18.268;2024-03-08T11:21:30;1.17;;;0.70;;
33403;SDS011;19751;40.274;18.268;2024-03-08T11:24:02;2.42;;;0.80;;
33403;SDS011;19751;40.274;18.268;2024-03-08T11:26:33;2.47;;;0.75;;
33403;SDS011;19751;40.274;18.268;2024-03-08T11:32:07;1.02;;;0.60;;
33403;SDS011;19751;40.274;18.268;2024-03-08T11:34:33;3.85;;;0.73;;
33403;SDS011;19751;40.274;18.268;2024-03-08T11:36:59;2.47;;;1.17;;
33403;SDS011;19751;40.274;18.268;2024-03-08T11:39:25;6.63;;;1.38;;
33403;SDS011;19751;40.274;18.268;2024-03-08T11:41:51;2.13;;;1.25;;
33403;SDS011;19751;40.274;18.268;2024-03-08T11:44:17;3.13;;;1.77;;
33403;SDS011;19751;40.274;18.268;2024-03-08T11:46:43;3.60;;;1.23;;
33403;SDS011;19751;40.274;18.268;2024-03-08T11:49:13;4.72;;;2.30;;
33403;SDS011;19751;40.274;18.268;2024-03-08T11:51:39;2.95;;;2.08;;
33403;SDS011;19751;40.274;18.268;2024-03-08T11:54:06;2.00;;;1.00;;
33403;SDS011;19751;40.274;18.268;2024-03-08T11:56:37;2.30;;;1.20;;
33403;SDS011;19751;40.274;18.268;2024-03-08T11:59:02;1.00;;;0.82;;
33403;SDS011;19751;40.274;18.268;2024-03-08T12:01:28;1.13;;;0.70;;
33403;SDS011;19751;40.274;18.268;2024-03-08T12:03:54;1.98;;;0.70;;
33403;SDS011;19751;40.274;18.268;2024-03-08T12:06:24;1.80;;;0.88;;
33403;SDS011;19751;40.274;18.268;2024-03-08T12:08:49;1.35;;;0.73;;
33403;SDS011;19751;40.274;18.268;2024-03-08T12:11:16;2.63;;;0.90;;
33403;SDS011;19751;40.274;18.268;2024-03-08T12:13:48;1.60;;;0.90;;
33403;SDS011;19751;40.274;18.268;2024-03-08T12:16:19;1.58;;;0.90;;
33403;SDS011;19751;40.274;18.268;2024-03-08T12:18:46;1.67;;;1.33;;
33403;SDS011;19751;40.274;18.268;2024-03-08T12:21:13;1.85;;;0.90;;
33403;SDS011;19751;40.274;18.268;2024-03-08T12:23:42;1.58;;;0.85;;
33403;SDS011;19751;40.274;18.268;2024-03-08T12:26:13;0.95;;;0.70;;
33403;SDS011;19751;40.274;18.268;2024-03-08T12:28:42;4.18;;;1.13;;
33403;SDS011;19751;40.274;18.268;2024-03-08T12:31:11;4.70;;;1.25;;
33403;SDS011;19751;40.274;18.268;2024-03-08T12:34:00;3.42;;;1.52;;
33403;SDS011;19751;40.274;18.268;2024-03-08T12:36:25;0.88;;;0.77;;
33403;SDS011;19751;40.274;18.268;2024-03-08T12:38:52;1.73;;;0.93;;
33403;SDS011;19751;40.274;18.268;2024-03-08T12:41:19;3.33;;;1.10;;
33403;SDS011;19751;40.274;18.268;2024-03-08T12:43:46;2.47;;;0.90;;
33403;SDS011;19751;40.274;18.268;2024-03-08T12:46:17;4.03;;;1.27;;
33403;SDS011;19751;40.274;18.268;2024-03-08T12:48:45;3.33;;;0.73;;
33403;SDS011;19751;40.274;18.268;2024-03-08T12:51:15;1.70;;;0.82;;
33403;SDS011;19751;40.274;18.268;2024-03-08T12:53:44;2.13;;;0.80;;
33403;SDS011;19751;40.274;18.268;2024-03-08T12:56:14;2.03;;;1.10;;
33403;SDS011;19751;40.274;18.268;2024-03-08T12:58:45;1.35;;;0.70;;
33403;SDS011;19751;40.274;18.268;2024-03-08T13:01:11;1.20;;;0.82;;
33403;SDS011;19751;40.274;18.268;2024-03-08T13:03:37;3.30;;;1.02;;
33403;SDS011;19751;40.274;18.268;2024-03-08T13:06:03;2.83;;;1.33;;
33403;SDS011;19751;40.274;18.268;2024-03-08T13:08:33;3.75;;;2.08;;
33403;SDS011;19751;40.274;18.268;2024-03-08T13:11:06;3.47;;;1.65;;
33403;SDS011;19751;40.274;18.268;2024-03-08T13:13:37;1.77;;;1.23;;
33403;SDS011;19751;40.274;18.268;2024-03-08T13:16:05;2.53;;;0.98;;
33403;SDS011;19751;40.274;18.268;2024-03-08T13:18:34;2.40;;;1.50;;
33403;SDS011;19751;40.274;18.268;2024-03-08T13:21:00;2.35;;;1.38;;
33403;SDS011;19751;40.274;18.268;2024-03-08T13:23:36;7.70;;;2.50;;
33403;SDS011;19751;40.274;18.268;2024-03-08T13:26:06;3.00;;;1.50;;
33403;SDS011;19751;40.274;18.268;2024-03-08T13:28:32;1.10;;;0.80;;
33403;SDS011;19751;40.274;18.268;2024-03-08T13:31:02;2.78;;;1.10;;
33403;SDS011;19751;40.274;18.268;2024-03-08T13:33:31;1.45;;;0.80;;
33403;SDS011;19751;40.274;18.268;2024-03-08T13:36:00;4.57;;;2.35;;
33403;SDS011;19751;40.274;18.268;2024-03-08T13:38:26;5.03;;;3.70;;
33403;SDS011;19751;40.274;18.268;2024-03-08T13:40:52;9.18;;;5.25;;
33403;SDS011;19751;40.274;18.268;2024-03-08T13:43:17;6.80;;;3.05;;
33403;SDS011;19751;40.274;18.268;2024-03-08T13:45:43;2.55;;;1.85;;
33403;SDS011;19751;40.274;18.268;2024-03-08T13:48:09;1.90;;;1.70;;
33403;SDS011;19751;40.274;18.268;2024-03-08T13:50:37;3.72;;;1.77;;
33403;SDS011;19751;40.274;18.268;2024-03-08T13:53:03;3.17;;;2.10;;
33403;SDS011;19751;40.274;18.268;2024-03-08T13:55:29;18.08;;;10.63;;
33403;SDS011;19751;40.274;18.268;2024-03-08T13:57:55;13.77;;;9.10;;
33403;SDS011;19751;40.274;18.268;2024-03-08T14:00:22;3.20;;;2.38;;
33403;SDS011;19751;40.274;18.268;2024-03-08T14:02:50;2.53;;;2.33;;
33403;SDS011;19751;40.274;18.268;2024-03-08T14:05:16;4.07;;;2.78;;
33403;SDS011;19751;40.274;18.268;2024-03-08T14:07:42;6.50;;;3.13;;
33403;SDS011;19751;40.274;18.268;2024-03-08T14:10:11;1.60;;;1.15;;
33403;SDS011;19751;40.274;18.268;2024-03-08T14:12:37;2.47;;;1.63;;
33403;SDS011;19751;40.274;18.268;2024-03-08T14:15:04;2.83;;;1.17;;
33403;SDS011;19751;40.274;18.268;2024-03-08T14:17:31;2.97;;;1.60;;
33403;SDS011;19751;40.274;18.268;2024-03-08T14:19:58;3.28;;;1.80;;
33403;SDS011;19751;40.274;18.268;2024-03-08T14:22:24;8.05;;;6.20;;
33403;SDS011;19751;40.274;18.268;2024-03-08T14:24:49;5.13;;;2.33;;
33403;SDS011;19751;40.274;18.268;2024-03-08T14:27:16;3.40;;;2.17;;
33403;SDS011;19751;40.274;18.268;2024-03-08T14:29:43;4.43;;;1.77;;
33403;SDS011;19751;40.274;18.268;2024-03-08T14:32:09;2.03;;;1.77;;
33403;SDS011;19751;40.274;18.268;2024-03-08T14:34:35;3.08;;;1.30;;
33403;SDS011;19751;40.274;18.268;2024-03-08T14:37:01;1.42;;;1.00;;
33403;SDS011;19751;40.274;18.268;2024-03-08T14:39:30;3.15;;;1.10;;